createdAt,value
2022-12-28T00:01:43.842Z,9.70
2022-12-28T00:04:14.954Z,9.70
2022-12-28T00:06:41.769Z,9.70
2022-12-28T00:09:12.365Z,9.50
2022-12-28T00:11:39.401Z,9.70
2022-12-28T00:14:06.319Z,10.40
2022-12-28T00:16:37.507Z,9.80
2022-12-28T00:19:10.611Z,9.80
2022-12-28T00:21:37.636Z,9.80
2022-12-28T00:24:05.627Z,9.90
2022-12-28T00:26:35.197Z,9.90
2022-12-28T00:29:05.658Z,10.40
2022-12-28T00:31:34.309Z,9.90
2022-12-28T00:34:02.269Z,9.90
2022-12-28T00:37:08.483Z,10.00
2022-12-28T00:39:15.913Z,10.00
2022-12-28T00:41:42.680Z,10.30
2022-12-28T00:44:10.840Z,10.40
2022-12-28T00:46:38.139Z,10.10
2022-12-28T00:49:07.759Z,10.10
2022-12-28T00:51:35.043Z,10.10
2022-12-28T00:54:01.835Z,10.20
2022-12-28T00:56:28.715Z,10.10
2022-12-28T00:58:59.758Z,10.10
2022-12-28T01:01:28.973Z,10.10
2022-12-28T01:03:57.964Z,10.10
2022-12-28T01:06:25.843Z,10.10
2022-12-28T01:08:52.876Z,10.10
2022-12-28T01:11:26.703Z,10.70
2022-12-28T01:13:56.977Z,10.30
2022-12-28T01:16:28.017Z,10.70
2022-12-28T01:18:58.170Z,10.00
2022-12-28T01:21:29.187Z,10.00
2022-12-28T01:24:04.230Z,10.00
2022-12-28T01:26:31.418Z,10.50
2022-12-28T01:28:59.357Z,10.10
2022-12-28T01:31:27.013Z,10.60
2022-12-28T01:33:55.239Z,9.90
2022-12-28T01:36:25.568Z,9.90
2022-12-28T01:38:56.291Z,9.90
2022-12-28T01:41:25.368Z,10.30
2022-12-28T01:43:52.277Z,9.80
2022-12-28T01:46:48.148Z,9.80
2022-12-28T01:49:38.490Z,9.80
2022-12-28T01:52:15.687Z,9.80
2022-12-28T01:55:10.893Z,9.80
2022-12-28T01:58:02.878Z,9.90
2022-12-28T02:00:30.057Z,9.90
2022-12-28T02:03:22.524Z,9.90
2022-12-28T02:05:55.801Z,9.90
2022-12-28T02:08:50.128Z,10.00
2022-12-28T02:11:19.727Z,10.00
2022-12-28T02:13:50.175Z,10.00
2022-12-28T02:16:17.005Z,10.10
2022-12-28T02:18:45.818Z,10.10
2022-12-28T02:21:17.923Z,10.10
2022-12-28T02:24:32.240Z,10.20
2022-12-28T02:27:10.958Z,10.20
2022-12-28T02:29:43.647Z,10.20
2022-12-28T02:33:03.132Z,10.20
2022-12-28T02:35:59.308Z,10.30
2022-12-28T02:38:40.368Z,10.30
2022-12-28T02:41:15.521Z,10.20
2022-12-28T02:43:42.449Z,10.20
2022-12-28T02:46:50.884Z,10.30
2022-12-28T02:49:45.155Z,10.30
2022-12-28T02:52:17.561Z,10.20
2022-12-28T02:55:34.640Z,10.30
2022-12-28T02:58:39.752Z,10.30
2022-12-28T03:01:52.706Z,10.30
2022-12-28T03:05:05.528Z,10.30
2022-12-28T03:08:22.666Z,10.30
2022-12-28T03:10:55.004Z,10.30
2022-12-28T03:13:50.017Z,10.30
2022-12-28T03:17:05.783Z,10.20
2022-12-28T03:20:03.099Z,10.30
2022-12-28T03:22:53.856Z,10.30
2022-12-28T03:25:45.923Z,10.20
2022-12-28T03:28:42.881Z,10.30
2022-12-28T03:55:06.503Z,10.70
2022-12-28T03:57:03.399Z,10.60
2022-12-28T04:07:35.072Z,10.90
2022-12-28T04:13:17.342Z,11.00
2022-12-28T04:16:12.526Z,10.80
2022-12-28T04:19:36.644Z,10.80
2022-12-28T04:22:48.844Z,10.60
2022-12-28T04:26:05.227Z,10.80
2022-12-28T04:29:10.676Z,11.20
2022-12-28T04:31:53.098Z,10.90
2022-12-28T04:43:24.630Z,11.00
2022-12-28T04:52:19.371Z,11.10
2022-12-28T04:54:52.001Z,11.10
2022-12-28T04:57:36.053Z,11.10
2022-12-28T05:00:11.120Z,11.70
2022-12-28T05:03:29.167Z,11.20
2022-12-28T05:10:26.533Z,11.20
2022-12-28T05:13:06.504Z,11.60
2022-12-28T05:16:29.942Z,11.60
2022-12-28T05:19:46.799Z,11.20
2022-12-28T05:33:37.917Z,11.30
2022-12-28T05:37:08.198Z,11.30
2022-12-28T05:40:32.725Z,11.30
2022-12-28T05:59:03.560Z,11.30
2022-12-28T06:05:00.497Z,11.70
2022-12-28T06:07:27.361Z,11.60
2022-12-28T06:10:12.246Z,11.50
2022-12-28T06:12:54.487Z,11.20
2022-12-28T06:15:33.836Z,11.40
2022-12-28T06:18:17.171Z,11.30
2022-12-28T06:20:57.216Z,11.50
2022-12-28T06:23:44.525Z,11.70
2022-12-28T06:26:44.216Z,11.40
2022-12-28T06:29:20.035Z,11.40
2022-12-28T06:31:53.373Z,11.70
2022-12-28T06:34:24.076Z,11.50
2022-12-28T06:36:56.451Z,11.70
2022-12-28T06:40:46.838Z,11.40
2022-12-28T06:43:06.744Z,11.70
2022-12-28T06:46:23.116Z,11.60
2022-12-28T06:49:34.581Z,11.20
2022-12-28T06:53:00.341Z,11.40
2022-12-28T06:57:04.386Z,11.10
2022-12-28T06:59:46.288Z,11.40
2022-12-28T08:13:17.222Z,11.70
2022-12-28T08:16:08.035Z,12.00
2022-12-28T08:18:34.926Z,11.80
2022-12-28T08:21:15.275Z,11.90
2022-12-28T08:27:55.664Z,11.80
2022-12-28T08:30:22.463Z,11.80
2022-12-28T08:32:51.444Z,12.20
2022-12-28T08:35:18.158Z,11.40
2022-12-28T08:37:47.153Z,11.90
2022-12-28T08:40:13.868Z,12.00
2022-12-28T08:42:40.702Z,11.90
2022-12-28T08:45:08.184Z,12.00
2022-12-28T08:48:00.618Z,12.00
2022-12-28T08:50:31.581Z,12.00
2022-12-28T08:52:58.745Z,12.00
2022-12-28T08:55:25.450Z,12.00
2022-12-28T08:57:52.151Z,12.10
2022-12-28T09:00:19.131Z,12.10
2022-12-28T09:02:45.891Z,12.10
2022-12-28T09:05:12.688Z,12.20
2022-12-28T09:07:39.445Z,12.20
2022-12-28T09:10:07.339Z,12.50
2022-12-28T09:12:34.156Z,12.20
2022-12-28T09:15:00.913Z,12.30
2022-12-28T09:17:27.696Z,12.30
2022-12-28T09:19:54.407Z,12.30
2022-12-28T09:22:21.167Z,12.40
2022-12-28T09:24:47.844Z,12.40
2022-12-28T09:27:14.739Z,12.40
2022-12-28T09:29:41.497Z,12.40
2022-12-28T09:32:08.311Z,12.50
2022-12-28T09:34:37.522Z,12.60
2022-12-28T09:37:05.979Z,12.60
2022-12-28T09:39:32.820Z,12.60
2022-12-28T09:42:21.726Z,12.60
2022-12-28T09:45:06.411Z,12.60
2022-12-28T09:47:51.688Z,12.70
2022-12-28T09:50:18.675Z,12.70
2022-12-28T09:53:22.838Z,12.80
2022-12-28T09:56:23.357Z,12.90
2022-12-28T09:58:51.568Z,12.90
2022-12-28T10:01:21.072Z,13.10
2022-12-28T10:03:49.143Z,13.20
2022-12-28T10:06:26.609Z,13.20
2022-12-28T10:08:57.243Z,13.20
2022-12-28T10:11:33.065Z,13.50
2022-12-28T10:14:09.625Z,13.70
2022-12-28T10:16:42.768Z,13.80
2022-12-28T10:19:19.054Z,14.00
2022-12-28T10:21:47.683Z,14.30
2022-12-28T10:25:06.239Z,14.50
2022-12-28T10:27:11.392Z,14.80
2022-12-28T10:29:38.163Z,15.30
2022-12-28T10:32:09.491Z,15.20
2022-12-28T10:34:37.882Z,15.30
2022-12-28T10:37:16.216Z,15.40
2022-12-28T10:39:58.718Z,15.50
2022-12-28T10:42:43.922Z,15.60
2022-12-28T10:45:26.908Z,15.60
2022-12-28T10:47:56.578Z,15.70
2022-12-28T10:51:11.736Z,15.80
2022-12-28T10:53:48.976Z,16.00
2022-12-28T10:56:31.862Z,16.30
2022-12-28T10:59:10.672Z,16.60
2022-12-28T11:01:38.835Z,17.10
2022-12-28T11:04:17.967Z,17.20
2022-12-28T11:07:00.356Z,17.40
2022-12-28T11:09:35.206Z,17.80
2022-12-28T11:12:27.640Z,18.10
2022-12-28T11:14:54.511Z,18.40
2022-12-28T11:17:28.232Z,18.60
2022-12-28T11:20:08.335Z,18.70
2022-12-28T11:22:35.129Z,18.80
2022-12-28T11:25:02.746Z,18.70
2022-12-28T11:27:29.564Z,18.60
2022-12-28T11:29:57.452Z,18.40
2022-12-28T11:32:35.763Z,18.20
2022-12-28T11:35:04.103Z,17.90
2022-12-28T11:37:30.860Z,17.70
2022-12-28T11:39:58.794Z,17.40
2022-12-28T11:42:39.947Z,17.10
2022-12-28T11:45:36.437Z,16.90
2022-12-28T11:48:43.537Z,16.70
2022-12-28T11:51:36.769Z,16.40
2022-12-28T11:54:39.678Z,16.30
2022-12-28T11:57:08.666Z,16.10
2022-12-28T11:59:36.980Z,16.00
2022-12-28T12:02:29.215Z,15.90
2022-12-28T12:04:56.125Z,15.80
2022-12-28T12:07:31.628Z,15.70
2022-12-28T12:10:28.482Z,15.60
2022-12-28T12:12:55.742Z,15.50
2022-12-28T12:15:33.023Z,15.40
2022-12-28T12:18:05.232Z,15.30
2022-12-28T12:27:33.633Z,15.00
2022-12-28T12:30:06.612Z,14.90
2022-12-28T12:33:12.502Z,14.70
2022-12-28T12:36:23.702Z,14.70
2022-12-28T12:39:18.379Z,14.50
2022-12-28T12:42:17.653Z,14.40
2022-12-28T12:45:24.721Z,14.30
2022-12-28T12:48:41.626Z,14.20
2022-12-28T12:51:40.012Z,14.10
2022-12-28T12:54:44.312Z,13.90
2022-12-28T12:57:29.364Z,13.90
2022-12-28T13:00:15.781Z,13.80
2022-12-28T13:02:51.819Z,13.70
2022-12-28T13:05:26.725Z,13.60
2022-12-28T13:07:58.064Z,13.60
2022-12-28T13:10:44.451Z,13.60
2022-12-28T13:13:32.735Z,13.50
2022-12-28T13:16:08.013Z,13.70
2022-12-28T13:18:44.458Z,13.50
2022-12-28T13:21:20.593Z,13.50
2022-12-28T13:23:48.982Z,13.50
2022-12-28T13:26:16.812Z,13.40
2022-12-28T13:29:08.131Z,13.40
2022-12-28T13:31:39.190Z,13.40
2022-12-28T13:34:23.519Z,13.40
2022-12-28T13:37:00.060Z,13.40
2022-12-28T13:39:40.037Z,13.40
2022-12-28T13:42:28.094Z,13.40
2022-12-28T13:45:01.784Z,13.40
2022-12-28T13:47:47.610Z,13.40
2022-12-28T13:50:17.214Z,13.40
2022-12-28T13:52:59.111Z,13.40
2022-12-28T13:55:41.637Z,13.40
2022-12-28T13:58:14.964Z,13.40
2022-12-28T14:00:46.974Z,13.40
2022-12-28T14:03:16.054Z,13.40
2022-12-28T14:05:48.995Z,13.50
2022-12-28T14:08:17.886Z,13.60
2022-12-28T14:10:47.822Z,13.40
2022-12-28T14:13:17.210Z,13.50
2022-12-28T14:15:44.459Z,13.40
2022-12-28T14:18:16.543Z,13.50
2022-12-28T14:20:53.070Z,13.50
2022-12-28T14:23:32.162Z,13.50
2022-12-28T14:26:03.760Z,13.40
2022-12-28T14:28:44.199Z,13.40
2022-12-28T14:31:14.223Z,13.40
2022-12-28T14:33:57.835Z,13.40
2022-12-28T14:36:31.299Z,13.40
2022-12-28T14:39:04.647Z,13.40
2022-12-28T14:41:40.405Z,13.30
2022-12-28T14:44:19.694Z,13.30
2022-12-28T14:46:47.117Z,13.30
2022-12-28T14:49:29.163Z,13.30
2022-12-28T14:52:17.699Z,13.40
2022-12-28T14:54:46.458Z,13.30
2022-12-28T14:57:44.527Z,13.20
2022-12-28T15:00:20.083Z,13.20
2022-12-28T15:02:48.177Z,13.30
2022-12-28T15:05:33.337Z,13.20
2022-12-28T15:08:00.564Z,13.20
2022-12-28T15:10:27.330Z,13.20
2022-12-28T15:12:54.139Z,13.20
2022-12-28T15:15:21.965Z,13.20
2022-12-28T15:17:48.920Z,13.20
2022-12-28T15:20:17.541Z,13.20
2022-12-28T15:22:44.529Z,13.20
2022-12-28T15:25:11.367Z,13.20
2022-12-28T15:27:39.267Z,13.20
2022-12-28T15:30:09.038Z,13.10
2022-12-28T15:32:37.825Z,13.20
2022-12-28T15:35:05.212Z,13.10
2022-12-28T15:37:32.082Z,13.10
2022-12-28T15:39:58.804Z,13.10
2022-12-28T15:42:25.665Z,13.10
2022-12-28T15:44:53.789Z,13.10
2022-12-28T15:47:21.010Z,13.40
2022-12-28T15:49:47.760Z,13.20
2022-12-28T15:52:14.579Z,13.00
2022-12-28T15:54:46.797Z,13.00
2022-12-28T15:57:15.528Z,13.00
2022-12-28T15:59:42.261Z,13.00
2022-12-28T16:02:11.736Z,13.00
2022-12-28T16:04:38.778Z,13.00
2022-12-28T16:07:05.860Z,13.00
2022-12-28T16:09:32.753Z,12.90
2022-12-28T16:11:59.496Z,12.90
2022-12-28T16:14:26.260Z,12.90
2022-12-28T16:16:53.194Z,12.90
2022-12-28T16:19:20.495Z,12.90
2022-12-28T16:21:50.943Z,12.90
2022-12-28T16:24:19.464Z,12.80
2022-12-28T16:26:46.773Z,12.80
2022-12-28T16:29:13.534Z,12.80
2022-12-28T16:31:40.666Z,12.80
2022-12-28T16:34:15.525Z,12.80
2022-12-28T16:36:46.042Z,12.80
2022-12-28T16:39:16.305Z,12.80
2022-12-28T16:41:43.376Z,12.80
2022-12-28T16:44:17.859Z,12.80
2022-12-28T16:46:45.620Z,12.80
2022-12-28T16:49:12.987Z,12.80
2022-12-28T16:51:43.821Z,12.80
2022-12-28T16:54:18.970Z,12.70
2022-12-28T16:56:47.727Z,12.70
2022-12-28T16:59:21.124Z,12.70
2022-12-28T17:01:48.557Z,12.70
2022-12-28T17:04:15.830Z,12.70
2022-12-28T17:06:43.347Z,12.60
2022-12-28T17:09:10.406Z,12.60
2022-12-28T17:11:37.129Z,12.60
2022-12-28T17:14:11.627Z,12.50
2022-12-28T17:16:38.940Z,12.50
2022-12-28T17:19:06.253Z,12.50
2022-12-28T17:21:34.845Z,12.40
2022-12-28T17:24:02.444Z,12.40
2022-12-28T17:26:31.877Z,12.40
2022-12-28T17:28:59.128Z,12.30
2022-12-28T17:31:26.057Z,12.30
2022-12-28T17:33:57.766Z,12.40
2022-12-28T17:36:25.093Z,12.20
2022-12-28T17:38:52.458Z,12.20
2022-12-28T17:41:23.789Z,12.20
2022-12-28T17:43:57.060Z,12.30
2022-12-28T17:46:26.944Z,12.20
2022-12-28T17:48:56.428Z,12.20
2022-12-28T17:51:25.410Z,12.10
2022-12-28T17:53:57.700Z,12.10
2022-12-28T17:56:25.280Z,12.10
2022-12-28T17:58:58.447Z,12.10
2022-12-28T18:01:27.868Z,12.10
2022-12-28T18:03:56.575Z,12.10
2022-12-28T18:06:24.158Z,12.00
2022-12-28T18:08:51.209Z,12.00
2022-12-28T18:11:17.943Z,12.00
2022-12-28T18:13:47.199Z,12.00
2022-12-28T18:16:18.862Z,11.90
2022-12-28T18:18:46.145Z,11.90
2022-12-28T18:21:21.348Z,11.90
2022-12-28T18:23:51.749Z,11.90
2022-12-28T18:26:26.090Z,11.80
2022-12-28T18:28:54.522Z,11.80
2022-12-28T18:31:21.480Z,11.80
2022-12-28T18:33:48.786Z,11.70
2022-12-28T18:36:18.107Z,11.80
2022-12-28T18:38:46.907Z,11.70
2022-12-28T18:41:17.167Z,11.70
2022-12-28T18:43:44.171Z,11.60
2022-12-28T18:46:11.104Z,11.60
2022-12-28T18:48:40.672Z,11.60
2022-12-28T18:51:15.044Z,11.60
2022-12-28T18:53:42.110Z,11.60
2022-12-28T18:56:17.523Z,11.60
2022-12-28T18:59:03.398Z,11.60
2022-12-28T19:27:18.436Z,11.70
2022-12-28T19:29:45.252Z,11.60
2022-12-28T19:32:14.095Z,12.00
2022-12-28T19:34:41.024Z,11.70
2022-12-28T19:37:07.797Z,12.00
2022-12-28T19:39:34.548Z,12.30
2022-12-28T19:42:01.261Z,11.90
2022-12-28T19:44:28.061Z,11.80
2022-12-28T19:46:58.746Z,11.90
2022-12-28T19:49:25.648Z,11.90
2022-12-28T19:51:52.624Z,12.00
2022-12-28T19:54:19.446Z,12.40
2022-12-28T19:56:46.210Z,12.10
2022-12-28T19:59:13.065Z,12.10
2022-12-28T20:01:39.930Z,12.20
2022-12-28T20:04:13.626Z,12.20
2022-12-28T20:06:43.745Z,12.30
2022-12-28T20:09:12.689Z,12.40
2022-12-28T20:11:40.541Z,12.40
2022-12-28T20:14:07.344Z,12.40
2022-12-28T20:16:35.644Z,12.40
2022-12-28T20:19:06.367Z,12.60
2022-12-28T20:21:33.700Z,12.50
2022-12-28T20:24:01.608Z,12.60
2022-12-28T20:26:29.756Z,12.60
2022-12-28T20:28:59.163Z,12.60
2022-12-28T20:31:27.163Z,12.60
2022-12-28T20:33:54.976Z,12.60
2022-12-28T20:36:26.161Z,12.70
2022-12-28T20:38:55.501Z,12.70
2022-12-28T20:41:49.814Z,12.80
2022-12-28T20:44:32.381Z,12.80
2022-12-28T20:47:00.675Z,12.90
2022-12-28T20:49:28.831Z,12.90
2022-12-28T20:51:58.317Z,13.20
2022-12-28T20:54:26.448Z,12.90
2022-12-28T20:56:56.250Z,13.00
2022-12-28T20:59:25.064Z,13.10
2022-12-28T21:01:52.214Z,13.10
2022-12-28T21:04:19.058Z,13.00
2022-12-28T21:06:46.067Z,13.10
2022-12-28T21:09:12.981Z,13.10
2022-12-28T21:11:39.727Z,13.20
2022-12-28T21:14:06.440Z,13.20
2022-12-28T21:16:33.698Z,13.20
2022-12-28T21:19:00.559Z,13.20
2022-12-28T21:21:27.290Z,13.20
2022-12-28T21:23:54.085Z,13.20
2022-12-28T21:26:22.470Z,13.20
2022-12-28T21:28:49.667Z,13.30
2022-12-28T21:31:16.661Z,13.30
2022-12-28T21:33:43.545Z,13.30
2022-12-28T21:36:16.987Z,13.30
2022-12-28T21:38:46.576Z,13.30
2022-12-28T21:41:38.779Z,13.30
2022-12-28T21:44:12.188Z,13.30
2022-12-28T21:46:39.568Z,13.30
2022-12-28T21:49:07.464Z,13.40
2022-12-28T21:51:39.127Z,13.30
2022-12-28T21:54:16.736Z,13.40
2022-12-28T21:56:46.816Z,13.40
2022-12-28T21:59:14.200Z,13.40
2022-12-28T22:02:01.075Z,13.40
2022-12-28T22:04:48.043Z,13.40
2022-12-28T22:07:18.826Z,13.40
2022-12-28T22:10:04.983Z,13.40
2022-12-28T22:12:35.445Z,13.40
2022-12-28T22:15:30.808Z,13.40
2022-12-28T22:18:44.476Z,13.60
2022-12-28T22:21:05.556Z,13.30
2022-12-28T22:23:34.729Z,13.30
2022-12-28T22:26:01.885Z,13.30
2022-12-28T22:28:28.678Z,13.30
2022-12-28T22:30:55.381Z,13.30
2022-12-28T22:33:22.121Z,13.30
2022-12-28T22:35:48.888Z,13.20
2022-12-28T22:38:15.644Z,13.30
2022-12-28T22:40:42.406Z,13.30
2022-12-28T22:43:09.131Z,13.30
2022-12-28T22:45:35.967Z,13.30
2022-12-28T22:48:02.711Z,13.30
2022-12-28T22:50:29.477Z,13.40
2022-12-28T22:52:58.113Z,13.40
2022-12-28T22:55:24.923Z,13.40
2022-12-28T22:57:51.627Z,13.40
2022-12-28T23:00:20.938Z,13.50
2022-12-28T23:02:47.846Z,13.50
2022-12-28T23:05:14.748Z,13.50
2022-12-28T23:07:41.591Z,13.50
2022-12-28T23:16:50.487Z,13.50
2022-12-28T23:19:41.324Z,13.60
2022-12-28T23:22:35.278Z,13.90
2022-12-28T23:25:21.272Z,14.10
2022-12-28T23:27:48.523Z,13.90
2022-12-28T23:30:21.606Z,13.90
2022-12-28T23:32:51.549Z,13.60
2022-12-28T23:35:20.512Z,13.60
2022-12-28T23:37:48.453Z,13.60
2022-12-28T23:40:18.431Z,13.60
2022-12-28T23:42:45.495Z,13.60
2022-12-28T23:45:16.188Z,13.40
2022-12-28T23:47:44.885Z,13.50
2022-12-28T23:50:14.087Z,13.50
2022-12-28T23:52:41.191Z,13.50
2022-12-28T23:55:09.856Z,13.40
2022-12-28T23:57:37.856Z,13.40
